sensor_id;sensor_type;location;lat;lon;timestamp;pressure;altitude;pressure_sealevel;temperature;humidity
29215;BME280;16252;49.816;7.964;2023-04-28T00:01:10;99815.63;;;16.04;45.73
29215;BME280;16252;49.816;7.964;2023-04-28T00:03:35;99812.78;;;16.06;46.02
29215;BME280;16252;49.816;7.964;2023-04-28T00:06:01;99811.75;;;16.07;46.25
29215;BME280;16252;49.816;7.964;2023-04-28T00:08:27;99811.91;;;16.05;46.19
29215;BME280;16252;49.816;7.964;2023-04-28T00:10:52;99801.28;;;16.03;46.45
29215;BME280;16252;49.816;7.964;2023-04-28T00:13:18;99797.06;;;16.01;46.44
29215;BME280;16252;49.816;7.964;2023-04-28T00:15:43;99780.25;;;15.89;46.69
29215;BME280;16252;49.816;7.964;2023-04-28T00:18:08;99774.66;;;15.82;47.03
29215;BME280;16252;49.816;7.964;2023-04-28T00:20:33;99803.06;;;15.95;47.16
29215;BME280;16252;49.816;7.964;2023-04-28T00:22:59;99740.19;;;15.58;47.35
29215;BME280;16252;49.816;7.964;2023-04-28T00:25:24;99785.13;;;15.86;47.67
29215;BME280;16252;49.816;7.964;2023-04-28T00:27:49;99734.34;;;15.63;47.49
29215;BME280;16252;49.816;7.964;2023-04-28T00:30:15;99757.47;;;15.84;47.83
29215;BME280;16252;49.816;7.964;2023-04-28T00:32:40;99708.31;;;15.54;48.13
29215;BME280;16252;49.816;7.964;2023-04-28T00:35:06;99753.00;;;15.74;48.07
29215;BME280;16252;49.816;7.964;2023-04-28T00:37:35;99745.22;;;15.71;48.47
29215;BME280;16252;49.816;7.964;2023-04-28T00:40:00;99728.94;;;15.63;47.95
29215;BME280;16252;49.816;7.964;2023-04-28T00:42:26;99743.41;;;15.62;48.35
29215;BME280;16252;49.816;7.964;2023-04-28T00:44:51;99690.47;;;15.35;48.03
29215;BME280;16252;49.816;7.964;2023-04-28T00:47:17;99768.41;;;15.82;48.04
29215;BME280;16252;49.816;7.964;2023-04-28T00:49:43;99698.63;;;15.43;48.43
29215;BME280;16252;49.816;7.964;2023-04-28T00:52:09;99745.38;;;15.70;48.18
29215;BME280;16252;49.816;7.964;2023-04-28T00:54:34;99695.22;;;15.41;48.06
29215;BME280;16252;49.816;7.964;2023-04-28T00:57:00;99753.91;;;15.83;48.01
29215;BME280;16252;49.816;7.964;2023-04-28T00:59:29;99707.47;;;15.53;47.99
29215;BME280;16252;49.816;7.964;2023-04-28T01:01:55;99677.38;;;15.40;48.17
29215;BME280;16252;49.816;7.964;2023-04-28T01:04:21;99719.84;;;15.64;48.12
29215;BME280;16252;49.816;7.964;2023-04-28T01:06:50;99681.06;;;15.39;48.24
29215;BME280;16252;49.816;7.964;2023-04-28T01:09:16;99700.06;;;15.55;48.07
29215;BME280;16252;49.816;7.964;2023-04-28T01:11:41;99711.59;;;15.66;48.18
29215;BME280;16252;49.816;7.964;2023-04-28T01:14:07;99690.59;;;15.51;48.30
29215;BME280;16252;49.816;7.964;2023-04-28T01:16:33;99702.59;;;15.57;48.32
29215;BME280;16252;49.816;7.964;2023-04-28T01:18:59;99711.06;;;15.62;48.80
29215;BME280;16252;49.816;7.964;2023-04-28T01:21:30;99715.16;;;15.66;48.77
29215;BME280;16252;49.816;7.964;2023-04-28T01:23:57;99714.78;;;15.61;48.71
29215;BME280;16252;49.816;7.964;2023-04-28T01:26:23;99722.81;;;15.71;49.11
29215;BME280;16252;49.816;7.964;2023-04-28T01:28:48;99706.81;;;15.59;48.96
29215;BME280;16252;49.816;7.964;2023-04-28T01:31:14;99691.75;;;15.49;49.08
29215;BME280;16252;49.816;7.964;2023-04-28T01:33:39;99681.38;;;15.36;49.32
29215;BME280;16252;49.816;7.964;2023-04-28T01:36:05;99648.91;;;15.20;49.36
29215;BME280;16252;49.816;7.964;2023-04-28T01:38:30;99724.84;;;15.59;49.21
29215;BME280;16252;49.816;7.964;2023-04-28T01:40:55;99698.84;;;15.50;49.26
29215;BME280;16252;49.816;7.964;2023-04-28T01:43:22;99688.06;;;15.50;49.36
29215;BME280;16252;49.816;7.964;2023-04-28T01:45:47;99716.44;;;15.62;49.36
29215;BME280;16252;49.816;7.964;2023-04-28T01:48:13;99717.84;;;15.66;49.43
29215;BME280;16252;49.816;7.964;2023-04-28T01:50:38;99705.97;;;15.59;49.33
29215;BME280;16252;49.816;7.964;2023-04-28T01:53:03;99709.38;;;15.61;49.28
29215;BME280;16252;49.816;7.964;2023-04-28T01:55:28;99715.59;;;15.61;49.45
29215;BME280;16252;49.816;7.964;2023-04-28T01:57:54;99710.22;;;15.61;49.64
29215;BME280;16252;49.816;7.964;2023-04-28T02:00:22;99701.94;;;15.55;49.46
29215;BME280;16252;49.816;7.964;2023-04-28T02:02:47;99687.13;;;15.41;49.81
29215;BME280;16252;49.816;7.964;2023-04-28T02:05:12;99706.44;;;15.54;50.16
29215;BME280;16252;49.816;7.964;2023-04-28T02:07:37;99717.31;;;15.63;49.92
29215;BME280;16252;49.816;7.964;2023-04-28T02:10:03;99713.22;;;15.58;50.05
29215;BME280;16252;49.816;7.964;2023-04-28T02:12:28;99699.69;;;15.50;49.69
29215;BME280;16252;49.816;7.964;2023-04-28T02:14:54;99708.63;;;15.51;49.99
29215;BME280;16252;49.816;7.964;2023-04-28T02:17:19;99697.31;;;15.47;49.67
29215;BME280;16252;49.816;7.964;2023-04-28T02:19:44;99714.53;;;15.54;49.81
29215;BME280;16252;49.816;7.964;2023-04-28T02:22:09;99692.06;;;15.46;50.23
29215;BME280;16252;49.816;7.964;2023-04-28T02:24:35;99692.22;;;15.44;50.19
29215;BME280;16252;49.816;7.964;2023-04-28T02:27:01;99701.84;;;15.47;50.15
29215;BME280;16252;49.816;7.964;2023-04-28T02:29:27;99678.53;;;15.37;50.13
29215;BME280;16252;49.816;7.964;2023-04-28T02:31:54;99685.47;;;15.40;50.15
29215;BME280;16252;49.816;7.964;2023-04-28T02:34:19;99688.47;;;15.37;50.24
29215;BME280;16252;49.816;7.964;2023-04-28T02:36:45;99689.06;;;15.31;50.38
29215;BME280;16252;49.816;7.964;2023-04-28T02:39:10;99686.94;;;15.34;50.35
29215;BME280;16252;49.816;7.964;2023-04-28T02:41:36;99702.72;;;15.47;50.30
29215;BME280;16252;49.816;7.964;2023-04-28T02:44:01;99684.91;;;15.36;50.28
29215;BME280;16252;49.816;7.964;2023-04-28T02:46:26;99688.53;;;15.45;50.27
29215;BME280;16252;49.816;7.964;2023-04-28T02:48:51;99669.03;;;15.33;50.24
29215;BME280;16252;49.816;7.964;2023-04-28T02:51:17;99699.84;;;15.49;50.11
29215;BME280;16252;49.816;7.964;2023-04-28T02:53:43;99670.97;;;15.41;49.86
29215;BME280;16252;49.816;7.964;2023-04-28T02:56:08;99669.28;;;15.40;50.12
29215;BME280;16252;49.816;7.964;2023-04-28T02:58:33;99645.25;;;15.29;50.33
29215;BME280;16252;49.816;7.964;2023-04-28T03:00:58;99654.59;;;15.34;50.20
29215;BME280;16252;49.816;7.964;2023-04-28T03:03:24;99669.81;;;15.44;50.26
29215;BME280;16252;49.816;7.964;2023-04-28T03:05:49;99633.31;;;15.31;50.28
29215;BME280;16252;49.816;7.964;2023-04-28T03:08:15;99629.94;;;15.29;50.26
29215;BME280;16252;49.816;7.964;2023-04-28T03:10:40;99635.47;;;15.28;50.46
29215;BME280;16252;49.816;7.964;2023-04-28T03:13:05;99630.69;;;15.22;50.44
29215;BME280;16252;49.816;7.964;2023-04-28T03:15:31;99639.19;;;15.27;50.51
29215;BME280;16252;49.816;7.964;2023-04-28T03:17:56;99595.19;;;15.00;51.03
29215;BME280;16252;49.816;7.964;2023-04-28T03:20:22;99664.72;;;15.41;51.26
29215;BME280;16252;49.816;7.964;2023-04-28T03:22:47;99591.78;;;14.98;51.50
29215;BME280;16252;49.816;7.964;2023-04-28T03:25:12;99622.25;;;15.16;51.34
29215;BME280;16252;49.816;7.964;2023-04-28T03:27:38;99593.19;;;15.02;51.00
29215;BME280;16252;49.816;7.964;2023-04-28T03:30:04;99613.31;;;15.16;51.53
29215;BME280;16252;49.816;7.964;2023-04-28T03:32:29;99625.16;;;15.23;51.42
29215;BME280;16252;49.816;7.964;2023-04-28T03:34:54;99632.09;;;15.26;51.45
29215;BME280;16252;49.816;7.964;2023-04-28T03:37:20;99617.22;;;15.22;51.24
29215;BME280;16252;49.816;7.964;2023-04-28T03:39:45;99596.31;;;15.15;51.51
29215;BME280;16252;49.816;7.964;2023-04-28T03:42:10;99602.38;;;15.17;51.36
29215;BME280;16252;49.816;7.964;2023-04-28T03:44:36;99638.41;;;15.34;51.39
29215;BME280;16252;49.816;7.964;2023-04-28T03:47:01;99606.25;;;15.15;51.83
29215;BME280;16252;49.816;7.964;2023-04-28T03:49:26;99608.56;;;15.10;52.00
29215;BME280;16252;49.816;7.964;2023-04-28T03:51:51;99596.38;;;15.06;51.94
29215;BME280;16252;49.816;7.964;2023-04-28T03:54:17;99604.72;;;15.12;51.57
29215;BME280;16252;49.816;7.964;2023-04-28T03:56:43;99612.84;;;15.21;51.94
29215;BME280;16252;49.816;7.964;2023-04-28T03:59:08;99595.22;;;15.08;51.55
29215;BME280;16252;49.816;7.964;2023-04-28T04:01:36;99579.25;;;15.07;51.92
29215;BME280;16252;49.816;7.964;2023-04-28T04:04:01;99589.25;;;15.14;51.52
29215;BME280;16252;49.816;7.964;2023-04-28T04:06:26;99594.00;;;15.21;52.13
29215;BME280;16252;49.816;7.964;2023-04-28T04:08:51;99560.38;;;15.07;52.09
29215;BME280;16252;49.816;7.964;2023-04-28T04:11:17;99584.50;;;15.16;52.03
29215;BME280;16252;49.816;7.964;2023-04-28T04:13:42;99557.31;;;15.02;51.99
29215;BME280;16252;49.816;7.964;2023-04-28T04:16:08;99558.16;;;15.02;52.24
29215;BME280;16252;49.816;7.964;2023-04-28T04:18:34;99570.59;;;15.03;52.49
29215;BME280;16252;49.816;7.964;2023-04-28T04:20:59;99578.38;;;15.06;52.19
29215;BME280;16252;49.816;7.964;2023-04-28T04:23:24;99549.91;;;14.86;52.33
29215;BME280;16252;49.816;7.964;2023-04-28T04:25:50;99569.00;;;14.92;52.47
29215;BME280;16252;49.816;7.964;2023-04-28T04:28:15;99592.91;;;15.13;52.48
29215;BME280;16252;49.816;7.964;2023-04-28T04:30:41;99567.53;;;14.98;52.49
29215;BME280;16252;49.816;7.964;2023-04-28T04:33:06;99578.53;;;15.05;52.93
29215;BME280;16252;49.816;7.964;2023-04-28T04:35:32;99565.69;;;14.99;52.67
29215;BME280;16252;49.816;7.964;2023-04-28T04:37:57;99556.56;;;14.91;52.96
29215;BME280;16252;49.816;7.964;2023-04-28T04:40:23;99574.78;;;14.98;52.67
29215;BME280;16252;49.816;7.964;2023-04-28T04:42:48;99564.47;;;14.93;52.74
29215;BME280;16252;49.816;7.964;2023-04-28T04:45:13;99559.78;;;14.95;52.84
29215;BME280;16252;49.816;7.964;2023-04-28T04:47:39;99597.69;;;15.20;52.96
29215;BME280;16252;49.816;7.964;2023-04-28T04:50:05;99590.84;;;15.07;52.79
29215;BME280;16252;49.816;7.964;2023-04-28T04:52:31;99592.22;;;15.11;53.01
29215;BME280;16252;49.816;7.964;2023-04-28T04:54:56;99581.38;;;15.03;52.88
29215;BME280;16252;49.816;7.964;2023-04-28T04:57:21;99568.22;;;15.00;53.39
29215;BME280;16252;49.816;7.964;2023-04-28T04:59:47;99574.00;;;15.05;52.86
29215;BME280;16252;49.816;7.964;2023-04-28T05:02:12;99584.84;;;15.13;52.65
29215;BME280;16252;49.816;7.964;2023-04-28T05:04:37;99573.16;;;15.05;52.86
29215;BME280;16252;49.816;7.964;2023-04-28T05:07:02;99516.47;;;14.70;53.48
29215;BME280;16252;49.816;7.964;2023-04-28T05:09:28;99586.84;;;15.11;53.28
29215;BME280;16252;49.816;7.964;2023-04-28T05:11:54;99547.22;;;14.86;53.35
29215;BME280;16252;49.816;7.964;2023-04-28T05:14:20;99570.09;;;15.00;53.42
29215;BME280;16252;49.816;7.964;2023-04-28T05:16:45;99585.41;;;14.99;53.46
29215;BME280;16252;49.816;7.964;2023-04-28T05:19:10;99574.41;;;14.92;53.40
29215;BME280;16252;49.816;7.964;2023-04-28T05:21:36;99561.34;;;14.80;53.35
29215;BME280;16252;49.816;7.964;2023-04-28T05:24:01;99571.84;;;14.91;53.55
29215;BME280;16252;49.816;7.964;2023-04-28T05:26:26;99576.09;;;14.93;53.34
29215;BME280;16252;49.816;7.964;2023-04-28T05:28:52;99589.09;;;14.98;53.29
29215;BME280;16252;49.816;7.964;2023-04-28T05:31:17;99579.78;;;14.92;53.48
29215;BME280;16252;49.816;7.964;2023-04-28T05:33:42;99609.16;;;15.04;53.66
29215;BME280;16252;49.816;7.964;2023-04-28T05:36:08;99591.34;;;14.85;53.74
29215;BME280;16252;49.816;7.964;2023-04-28T05:38:33;99539.72;;;14.54;53.90
29215;BME280;16252;49.816;7.964;2023-04-28T05:41:00;99510.63;;;14.39;53.74
29215;BME280;16252;49.816;7.964;2023-04-28T05:43:25;99565.31;;;14.76;54.35
29215;BME280;16252;49.816;7.964;2023-04-28T05:45:51;99519.41;;;14.59;54.14
29215;BME280;16252;49.816;7.964;2023-04-28T05:48:16;99545.25;;;14.70;54.13
29215;BME280;16252;49.816;7.964;2023-04-28T05:50:42;99543.09;;;14.56;54.14
29215;BME280;16252;49.816;7.964;2023-04-28T05:53:07;99557.00;;;14.51;54.23
29215;BME280;16252;49.816;7.964;2023-04-28T05:55:33;99589.72;;;14.74;54.61
29215;BME280;16252;49.816;7.964;2023-04-28T05:58:00;99583.00;;;14.60;54.83
29215;BME280;16252;49.816;7.964;2023-04-28T06:00:25;99558.28;;;14.47;55.09
29215;BME280;16252;49.816;7.964;2023-04-28T06:02:51;99591.34;;;14.67;54.80
29215;BME280;16252;49.816;7.964;2023-04-28T06:05:16;99544.06;;;14.37;54.96
29215;BME280;16252;49.816;7.964;2023-04-28T06:07:41;99616.72;;;14.82;55.17
29215;BME280;16252;49.816;7.964;2023-04-28T06:10:08;99604.50;;;14.70;55.34
29215;BME280;16252;49.816;7.964;2023-04-28T06:12:33;99598.56;;;14.66;54.99
29215;BME280;16252;49.816;7.964;2023-04-28T06:14:58;99600.25;;;14.67;54.97
29215;BME280;16252;49.816;7.964;2023-04-28T06:17:23;99545.91;;;14.36;54.86
29215;BME280;16252;49.816;7.964;2023-04-28T06:19:49;99579.38;;;14.51;54.86
29215;BME280;16252;49.816;7.964;2023-04-28T06:22:17;99586.63;;;14.51;54.92
29215;BME280;16252;49.816;7.964;2023-04-28T06:24:42;99559.81;;;14.31;54.87
29215;BME280;16252;49.816;7.964;2023-04-28T06:27:08;99606.94;;;14.63;55.11
29215;BME280;16252;49.816;7.964;2023-04-28T06:29:33;99599.88;;;14.62;55.12
29215;BME280;16252;49.816;7.964;2023-04-28T06:31:58;99580.66;;;14.47;55.08
29215;BME280;16252;49.816;7.964;2023-04-28T06:34:24;99586.91;;;14.48;55.20
29215;BME280;16252;49.816;7.964;2023-04-28T06:36:54;99602.50;;;14.54;55.12
29215;BME280;16252;49.816;7.964;2023-04-28T06:39:20;99590.56;;;14.57;55.33
29215;BME280;16252;49.816;7.964;2023-04-28T06:41:46;99576.53;;;14.53;55.40
29215;BME280;16252;49.816;7.964;2023-04-28T06:44:11;99578.78;;;14.58;55.73
29215;BME280;16252;49.816;7.964;2023-04-28T06:46:37;99574.56;;;14.55;55.83
29215;BME280;16252;49.816;7.964;2023-04-28T06:49:02;99603.19;;;14.74;55.64
29215;BME280;16252;49.816;7.964;2023-04-28T06:51:29;99578.34;;;14.62;56.00
29215;BME280;16252;49.816;7.964;2023-04-28T06:53:56;99534.38;;;14.44;56.00
29215;BME280;16252;49.816;7.964;2023-04-28T06:56:22;99549.56;;;14.63;55.68
29215;BME280;16252;49.816;7.964;2023-04-28T06:58:47;99568.41;;;14.81;55.91
29215;BME280;16252;49.816;7.964;2023-04-28T07:01:12;99540.78;;;14.61;55.94
29215;BME280;16252;49.816;7.964;2023-04-28T07:03:38;99557.19;;;14.67;55.85
29215;BME280;16252;49.816;7.964;2023-04-28T07:06:03;99588.19;;;14.89;56.12
29215;BME280;16252;49.816;7.964;2023-04-28T07:08:29;99588.56;;;14.94;56.37
29215;BME280;16252;49.816;7.964;2023-04-28T07:10:54;99583.69;;;14.98;55.97
29215;BME280;16252;49.816;7.964;2023-04-28T07:13:20;99551.47;;;14.88;55.96
29215;BME280;16252;49.816;7.964;2023-04-28T07:15:46;99560.94;;;14.92;56.27
29215;BME280;16252;49.816;7.964;2023-04-28T07:18:11;99532.94;;;14.85;56.38
29215;BME280;16252;49.816;7.964;2023-04-28T07:20:36;99566.28;;;15.10;56.42
29215;BME280;16252;49.816;7.964;2023-04-28T07:23:01;99566.34;;;15.18;56.88
29215;BME280;16252;49.816;7.964;2023-04-28T07:25:27;99562.50;;;15.21;56.63
29215;BME280;16252;49.816;7.964;2023-04-28T07:27:52;99584.00;;;15.39;56.42
29215;BME280;16252;49.816;7.964;2023-04-28T07:30:18;99577.31;;;15.43;56.40
29215;BME280;16252;49.816;7.964;2023-04-28T07:32:43;99573.97;;;15.49;56.15
29215;BME280;16252;49.816;7.964;2023-04-28T07:35:09;99574.50;;;15.53;56.27
29215;BME280;16252;49.816;7.964;2023-04-28T07:37:35;99554.78;;;15.52;56.45
29215;BME280;16252;49.816;7.964;2023-04-28T07:40:01;99558.72;;;15.66;56.44
29215;BME280;16252;49.816;7.964;2023-04-28T07:42:26;99565.34;;;15.72;56.30
29215;BME280;16252;49.816;7.964;2023-04-28T07:44:51;99554.13;;;15.58;56.23
29215;BME280;16252;49.816;7.964;2023-04-28T07:47:17;99566.41;;;15.79;56.05
29215;BME280;16252;49.816;7.964;2023-04-28T07:49:42;99534.47;;;15.66;56.16
29215;BME280;16252;49.816;7.964;2023-04-28T07:52:07;99555.13;;;15.84;56.51
29215;BME280;16252;49.816;7.964;2023-04-28T07:54:33;99561.03;;;15.87;56.28
29215;BME280;16252;49.816;7.964;2023-04-28T07:56:59;99581.66;;;15.96;56.33
29215;BME280;16252;49.816;7.964;2023-04-28T07:59:25;99557.69;;;15.85;56.30
29215;BME280;16252;49.816;7.964;2023-04-28T08:01:50;99599.63;;;16.14;56.45
29215;BME280;16252;49.816;7.964;2023-04-28T08:04:16;99570.41;;;16.01;55.75
29215;BME280;16252;49.816;7.964;2023-04-28T08:06:41;99528.47;;;15.72;55.99
29215;BME280;16252;49.816;7.964;2023-04-28T08:09:06;99564.78;;;15.94;56.18
29215;BME280;16252;49.816;7.964;2023-04-28T08:11:32;99578.19;;;16.12;56.24
29215;BME280;16252;49.816;7.964;2023-04-28T08:13:58;99581.06;;;16.11;56.00
29215;BME280;16252;49.816;7.964;2023-04-28T08:16:27;99586.47;;;16.11;56.11
29215;BME280;16252;49.816;7.964;2023-04-28T08:18:53;99584.28;;;16.14;56.30
29215;BME280;16252;49.816;7.964;2023-04-28T08:21:18;99602.19;;;16.23;56.17
29215;BME280;16252;49.816;7.964;2023-04-28T08:23:44;99550.97;;;15.97;56.47
29215;BME280;16252;49.816;7.964;2023-04-28T08:26:10;99546.94;;;16.01;56.54
29215;BME280;16252;49.816;7.964;2023-04-28T08:28:35;99584.66;;;16.28;56.16
29215;BME280;16252;49.816;7.964;2023-04-28T08:31:01;99590.91;;;16.28;56.37
29215;BME280;16252;49.816;7.964;2023-04-28T08:33:26;99582.84;;;16.36;55.96
29215;BME280;16252;49.816;7.964;2023-04-28T08:35:51;99599.72;;;16.46;56.26
29215;BME280;16252;49.816;7.964;2023-04-28T08:38:17;99609.16;;;16.51;55.99
29215;BME280;16252;49.816;7.964;2023-04-28T08:40:42;99600.59;;;16.55;56.22
29215;BME280;16252;49.816;7.964;2023-04-28T08:43:08;99602.78;;;16.60;56.10
29215;BME280;16252;49.816;7.964;2023-04-28T08:45:41;99635.09;;;16.86;56.43
29215;BME280;16252;49.816;7.964;2023-04-28T08:48:18;99625.31;;;16.85;56.23
29215;BME280;16252;49.816;7.964;2023-04-28T08:50:51;99624.50;;;16.93;56.42
29215;BME280;16252;49.816;7.964;2023-04-28T08:53:22;99608.63;;;16.81;55.98
29215;BME280;16252;49.816;7.964;2023-04-28T08:55:51;99632.59;;;17.01;56.22
29215;BME280;16252;49.816;7.964;2023-04-28T08:58:18;99612.16;;;16.90;56.00
29215;BME280;16252;49.816;7.964;2023-04-28T09:00:43;99592.56;;;16.80;55.71
29215;BME280;16252;49.816;7.964;2023-04-28T09:03:08;99592.22;;;16.83;55.26
29215;BME280;16252;49.816;7.964;2023-04-28T09:05:35;99604.25;;;16.97;55.86
29215;BME280;16252;49.816;7.964;2023-04-28T09:08:01;99612.34;;;16.97;55.76
29215;BME280;16252;49.816;7.964;2023-04-28T09:10:27;99616.03;;;17.04;56.28
29215;BME280;16252;49.816;7.964;2023-04-28T09:12:54;99631.09;;;17.15;56.24
29215;BME280;16252;49.816;7.964;2023-04-28T09:15:38;99638.03;;;17.33;55.74
29215;BME280;16252;49.816;7.964;2023-04-28T09:18:07;99628.56;;;17.21;55.90
29215;BME280;16252;49.816;7.964;2023-04-28T09:20:34;99616.41;;;17.17;55.80
29215;BME280;16252;49.816;7.964;2023-04-28T09:23:18;99610.31;;;17.23;55.26
29215;BME280;16252;49.816;7.964;2023-04-28T09:26:01;99638.34;;;17.47;55.37
29215;BME280;16252;49.816;7.964;2023-04-28T09:28:27;99593.41;;;17.13;55.67
29215;BME280;16252;49.816;7.964;2023-04-28T09:30:53;99622.31;;;17.37;55.94
29215;BME280;16252;49.816;7.964;2023-04-28T09:33:18;99597.81;;;17.30;55.85
29215;BME280;16252;49.816;7.964;2023-04-28T09:35:45;99616.22;;;17.43;55.76
29215;BME280;16252;49.816;7.964;2023-04-28T09:38:11;99607.59;;;17.48;55.52
29215;BME280;16252;49.816;7.964;2023-04-28T09:40:51;99604.84;;;17.64;55.96
29215;BME280;16252;49.816;7.964;2023-04-28T09:43:27;99620.38;;;17.87;55.54
29215;BME280;16252;49.816;7.964;2023-04-28T09:45:53;99622.09;;;17.88;55.54
29215;BME280;16252;49.816;7.964;2023-04-28T09:48:29;99616.13;;;18.01;55.36
29215;BME280;16252;49.816;7.964;2023-04-28T09:50:55;99620.34;;;18.03;55.03
29215;BME280;16252;49.816;7.964;2023-04-28T09:53:22;99613.38;;;18.09;55.60
29215;BME280;16252;49.816;7.964;2023-04-28T09:55:48;99592.97;;;17.98;55.21
29215;BME280;16252;49.816;7.964;2023-04-28T09:58:18;99585.00;;;17.96;55.36
29215;BME280;16252;49.816;7.964;2023-04-28T10:00:44;99605.63;;;18.06;55.20
29215;BME280;16252;49.816;7.964;2023-04-28T10:03:10;99578.75;;;17.96;55.04
29215;BME280;16252;49.816;7.964;2023-04-28T10:05:36;99598.31;;;18.14;55.13
29215;BME280;16252;49.816;7.964;2023-04-28T10:08:03;99609.75;;;18.25;55.05
29215;BME280;16252;49.816;7.964;2023-04-28T10:10:28;99588.63;;;18.20;54.59
29215;BME280;16252;49.816;7.964;2023-04-28T10:12:54;99599.97;;;18.24;55.01
29215;BME280;16252;49.816;7.964;2023-04-28T10:15:20;99592.84;;;18.23;55.47
29215;BME280;16252;49.816;7.964;2023-04-28T10:17:49;99595.66;;;18.37;55.64
29215;BME280;16252;49.816;7.964;2023-04-28T10:20:15;99611.16;;;18.52;55.27
29215;BME280;16252;49.816;7.964;2023-04-28T10:22:55;99621.72;;;18.70;55.16
29215;BME280;16252;49.816;7.964;2023-04-28T10:25:31;99631.31;;;18.80;55.08
29215;BME280;16252;49.816;7.964;2023-04-28T10:27:59;99606.50;;;18.69;55.27
29215;BME280;16252;49.816;7.964;2023-04-28T10:30:25;99614.22;;;18.80;55.16
29215;BME280;16252;49.816;7.964;2023-04-28T10:38:06;99608.03;;;18.94;54.83
29215;BME280;16252;49.816;7.964;2023-04-28T10:40:36;99599.91;;;18.94;54.67
29215;BME280;16252;49.816;7.964;2023-04-28T10:43:03;99565.63;;;18.78;54.31
29215;BME280;16252;49.816;7.964;2023-04-28T10:48:16;99582.97;;;18.92;54.34
29215;BME280;16252;49.816;7.964;2023-04-28T10:56:16;99573.25;;;18.75;54.21
29215;BME280;16252;49.816;7.964;2023-04-28T10:58:49;99618.59;;;18.89;54.33
29215;BME280;16252;49.816;7.964;2023-04-28T11:01:23;99576.38;;;18.63;54.22
29215;BME280;16252;49.816;7.964;2023-04-28T11:03:54;99612.56;;;18.79;54.33
29215;BME280;16252;49.816;7.964;2023-04-28T11:08:55;99611.59;;;18.63;55.08
29215;BME280;16252;49.816;7.964;2023-04-28T11:11:25;99561.16;;;18.31;55.44
29215;BME280;16252;49.816;7.964;2023-04-28T11:13:52;99587.03;;;18.34;55.73
29215;BME280;16252;49.816;7.964;2023-04-28T11:16:21;99608.63;;;18.50;56.63
29215;BME280;16252;49.816;7.964;2023-04-28T11:19:00;99598.81;;;18.49;56.29
29215;BME280;16252;49.816;7.964;2023-04-28T11:21:30;99569.34;;;18.15;56.84
29215;BME280;16252;49.816;7.964;2023-04-28T11:23:56;99585.38;;;18.25;56.72
29215;BME280;16252;49.816;7.964;2023-04-28T11:26:22;99577.69;;;18.13;57.01
29215;BME280;16252;49.816;7.964;2023-04-28T11:28:56;99608.03;;;18.32;57.74
29215;BME280;16252;49.816;7.964;2023-04-28T11:31:24;99617.88;;;18.25;57.74
29215;BME280;16252;49.816;7.964;2023-04-28T11:33:53;99608.44;;;18.21;57.71
29215;BME280;16252;49.816;7.964;2023-04-28T11:36:22;99603.03;;;18.21;57.83
29215;BME280;16252;49.816;7.964;2023-04-28T11:38:47;99583.97;;;18.06;58.17
29215;BME280;16252;49.816;7.964;2023-04-28T11:41:13;99582.78;;;18.08;58.94
29215;BME280;16252;49.816;7.964;2023-04-28T11:43:38;99566.84;;;18.05;59.22
29215;BME280;16252;49.816;7.964;2023-04-28T11:46:06;99583.41;;;18.18;59.01
29215;BME280;16252;49.816;7.964;2023-04-28T11:48:31;99580.50;;;18.20;59.36
29215;BME280;16252;49.816;7.964;2023-04-28T11:50:57;99593.66;;;18.31;59.29
29215;BME280;16252;49.816;7.964;2023-04-28T11:53:42;99584.97;;;18.44;58.50
29215;BME280;16252;49.816;7.964;2023-04-28T11:56:08;99578.88;;;18.42;58.26
29215;BME280;16252;49.816;7.964;2023-04-28T11:58:34;99581.22;;;18.45;58.46
29215;BME280;16252;49.816;7.964;2023-04-28T12:01:12;99601.91;;;18.69;58.06
29215;BME280;16252;49.816;7.964;2023-04-28T12:03:46;99596.34;;;18.62;57.91
29215;BME280;16252;49.816;7.964;2023-04-28T12:06:11;99564.97;;;18.45;58.22
29215;BME280;16252;49.816;7.964;2023-04-28T12:08:41;99580.09;;;18.62;58.05
29215;BME280;16252;49.816;7.964;2023-04-28T12:11:08;99554.94;;;18.54;58.39
29215;BME280;16252;49.816;7.964;2023-04-28T12:13:34;99540.19;;;18.56;58.15
29215;BME280;16252;49.816;7.964;2023-04-28T12:16:04;99571.84;;;18.87;58.27
29215;BME280;16252;49.816;7.964;2023-04-28T12:22:10;99576.50;;;19.16;58.00
29215;BME280;16252;49.816;7.964;2023-04-28T12:24:35;99561.19;;;19.23;58.97
29215;BME280;16252;49.816;7.964;2023-04-28T12:27:17;99582.56;;;19.56;57.75
29215;BME280;16252;49.816;7.964;2023-04-28T12:29:45;99554.97;;;19.53;58.45
29215;BME280;16252;49.816;7.964;2023-04-28T12:32:12;99567.81;;;19.74;58.63
29215;BME280;16252;49.816;7.964;2023-04-28T12:34:39;99546.50;;;19.70;58.16
29215;BME280;16252;49.816;7.964;2023-04-28T12:37:05;99571.66;;;19.94;57.90
29215;BME280;16252;49.816;7.964;2023-04-28T12:39:35;99571.56;;;20.02;57.88
29215;BME280;16252;49.816;7.964;2023-04-28T12:42:01;99577.84;;;20.03;58.17
29215;BME280;16252;49.816;7.964;2023-04-28T12:44:36;99501.38;;;19.69;58.11
29215;BME280;16252;49.816;7.964;2023-04-28T12:47:06;99585.59;;;20.21;58.58
29215;BME280;16252;49.816;7.964;2023-04-28T12:49:35;99562.72;;;20.15;58.78
29215;BME280;16252;49.816;7.964;2023-04-28T12:52:01;99574.50;;;20.37;58.46
29215;BME280;16252;49.816;7.964;2023-04-28T12:54:26;99566.38;;;20.22;58.09
29215;BME280;16252;49.816;7.964;2023-04-28T12:56:52;99559.94;;;20.23;57.37
29215;BME280;16252;49.816;7.964;2023-04-28T12:59:19;99563.88;;;20.21;57.75
29215;BME280;16252;49.816;7.964;2023-04-28T13:01:45;99557.78;;;20.19;57.56
29215;BME280;16252;49.816;7.964;2023-04-28T13:04:10;99565.94;;;20.19;57.74
29215;BME280;16252;49.816;7.964;2023-04-28T13:06:36;99558.16;;;20.16;57.69
29215;BME280;16252;49.816;7.964;2023-04-28T13:09:02;99552.38;;;20.04;57.98
29215;BME280;16252;49.816;7.964;2023-04-28T13:11:27;99550.22;;;19.99;58.40
29215;BME280;16252;49.816;7.964;2023-04-28T13:13:53;99539.72;;;19.96;58.56
29215;BME280;16252;49.816;7.964;2023-04-28T13:16:18;99531.22;;;19.84;59.21